sensor_id;sensor_type;location;lat;lon;timestamp;P1;durP1;ratioP1;P2;durP2;ratioP2
44532;SDS011;48673;53.016;-2.258;2022-07-29T00:00:19;14.25;;;2.88;;
44532;SDS011;48673;53.016;-2.258;2022-07-29T00:02:47;4.43;;;2.05;;
44532;SDS011;48673;53.016;-2.258;2022-07-29T00:05:15;5.90;;;1.67;;
44532;SDS011;48673;53.016;-2.258;2022-07-29T00:07:43;6.72;;;2.78;;
44532;SDS011;48673;53.016;-2.258;2022-07-29T00:10:10;5.95;;;1.67;;
44532;SDS011;48673;53.016;-2.258;2022-07-29T00:12:39;5.23;;;1.53;;
44532;SDS011;48673;53.016;-2.258;2022-07-29T00:15:07;7.97;;;1.90;;
44532;SDS011;48673;53.016;-2.258;2022-07-29T00:17:35;7.77;;;1.70;;
44532;SDS011;48673;53.016;-2.258;2022-07-29T00:20:03;5.88;;;1.77;;
44532;SDS011;48673;53.016;-2.258;2022-07-29T00:22:31;4.35;;;2.47;;
44532;SDS011;48673;53.016;-2.258;2022-07-29T00:25:03;5.85;;;1.80;;
44532;SDS011;48673;53.016;-2.258;2022-07-29T00:27:32;10.07;;;2.00;;
44532;SDS011;48673;53.016;-2.258;2022-07-29T00:29:59;8.07;;;2.25;;
44532;SDS011;48673;53.016;-2.258;2022-07-29T00:32:27;6.53;;;1.70;;
44532;SDS011;48673;53.016;-2.258;2022-07-29T00:34:55;3.15;;;1.40;;
44532;SDS011;48673;53.016;-2.258;2022-07-29T00:37:41;4.72;;;1.63;;
44532;SDS011;48673;53.016;-2.258;2022-07-29T00:40:09;11.27;;;2.10;;
44532;SDS011;48673;53.016;-2.258;2022-07-29T00:42:41;8.82;;;1.77;;
44532;SDS011;48673;53.016;-2.258;2022-07-29T00:45:12;5.38;;;1.58;;
44532;SDS011;48673;53.016;-2.258;2022-07-29T00:47:41;4.10;;;1.60;;
44532;SDS011;48673;53.016;-2.258;2022-07-29T00:50:09;5.38;;;1.60;;
44532;SDS011;48673;53.016;-2.258;2022-07-29T00:52:39;6.22;;;1.55;;
44532;SDS011;48673;53.016;-2.258;2022-07-29T00:55:09;5.32;;;1.63;;
44532;SDS011;48673;53.016;-2.258;2022-07-29T00:57:39;7.07;;;1.38;;
44532;SDS011;48673;53.016;-2.258;2022-07-29T01:00:09;6.63;;;1.58;;
44532;SDS011;48673;53.016;-2.258;2022-07-29T01:02:43;4.28;;;1.63;;
44532;SDS011;48673;53.016;-2.258;2022-07-29T01:05:11;5.38;;;1.40;;
44532;SDS011;48673;53.016;-2.258;2022-07-29T01:07:40;2.58;;;1.15;;
44532;SDS011;48673;53.016;-2.258;2022-07-29T01:10:09;8.23;;;1.45;;
44532;SDS011;48673;53.016;-2.258;2022-07-29T01:12:43;6.57;;;1.27;;
44532;SDS011;48673;53.016;-2.258;2022-07-29T01:15:13;8.43;;;1.77;;
44532;SDS011;48673;53.016;-2.258;2022-07-29T01:31:06;10.35;;;1.48;;
44532;SDS011;48673;53.016;-2.258;2022-07-29T01:33:45;4.70;;;1.45;;
44532;SDS011;48673;53.016;-2.258;2022-07-29T01:36:18;7.65;;;1.55;;
44532;SDS011;48673;53.016;-2.258;2022-07-29T01:38:59;8.10;;;1.35;;
44532;SDS011;48673;53.016;-2.258;2022-07-29T01:41:39;10.77;;;1.45;;
44532;SDS011;48673;53.016;-2.258;2022-07-29T01:44:20;6.65;;;1.77;;
44532;SDS011;48673;53.016;-2.258;2022-07-29T01:46:55;3.92;;;1.17;;
44532;SDS011;48673;53.016;-2.258;2022-07-29T01:49:27;6.05;;;1.20;;
44532;SDS011;48673;53.016;-2.258;2022-07-29T01:51:59;6.82;;;1.40;;
44532;SDS011;48673;53.016;-2.258;2022-07-29T01:54:37;3.85;;;1.20;;
44532;SDS011;48673;53.016;-2.258;2022-07-29T01:57:13;6.57;;;1.10;;
44532;SDS011;48673;53.016;-2.258;2022-07-29T01:59:45;5.53;;;1.40;;
44532;SDS011;48673;53.016;-2.258;2022-07-29T02:02:15;3.60;;;0.98;;
44532;SDS011;48673;53.016;-2.258;2022-07-29T02:04:45;2.35;;;0.75;;
44532;SDS011;48673;53.016;-2.258;2022-07-29T02:07:19;4.75;;;1.13;;
44532;SDS011;48673;53.016;-2.258;2022-07-29T02:09:49;5.45;;;1.25;;
44532;SDS011;48673;53.016;-2.258;2022-07-29T02:12:18;4.88;;;1.55;;
44532;SDS011;48673;53.016;-2.258;2022-07-29T02:17:20;4.82;;;1.52;;
44532;SDS011;48673;53.016;-2.258;2022-07-29T02:19:51;3.28;;;0.75;;
44532;SDS011;48673;53.016;-2.258;2022-07-29T02:22:23;3.60;;;1.02;;
44532;SDS011;48673;53.016;-2.258;2022-07-29T02:24:53;2.20;;;0.95;;
44532;SDS011;48673;53.016;-2.258;2022-07-29T02:27:24;5.60;;;0.90;;
44532;SDS011;48673;53.016;-2.258;2022-07-29T02:29:55;4.63;;;0.85;;
44532;SDS011;48673;53.016;-2.258;2022-07-29T02:32:25;4.35;;;0.98;;
44532;SDS011;48673;53.016;-2.258;2022-07-29T02:34:55;7.85;;;1.10;;
44532;SDS011;48673;53.016;-2.258;2022-07-29T02:37:25;4.38;;;1.00;;
44532;SDS011;48673;53.016;-2.258;2022-07-29T02:39:56;5.63;;;1.10;;
44532;SDS011;48673;53.016;-2.258;2022-07-29T02:42:26;6.47;;;1.10;;
44532;SDS011;48673;53.016;-2.258;2022-07-29T02:44:55;10.35;;;1.30;;
44532;SDS011;48673;53.016;-2.258;2022-07-29T02:47:34;7.43;;;1.58;;
44532;SDS011;48673;53.016;-2.258;2022-07-29T02:50:15;4.38;;;1.08;;
44532;SDS011;48673;53.016;-2.258;2022-07-29T02:52:58;1.92;;;0.80;;
44532;SDS011;48673;53.016;-2.258;2022-07-29T02:55:34;1.67;;;1.00;;
44532;SDS011;48673;53.016;-2.258;2022-07-29T02:58:05;3.17;;;1.00;;
44532;SDS011;48673;53.016;-2.258;2022-07-29T03:00:48;3.38;;;0.80;;
44532;SDS011;48673;53.016;-2.258;2022-07-29T03:03:18;6.15;;;1.20;;
44532;SDS011;48673;53.016;-2.258;2022-07-29T03:05:48;8.02;;;0.98;;
44532;SDS011;48673;53.016;-2.258;2022-07-29T03:08:15;5.53;;;1.02;;
44532;SDS011;48673;53.016;-2.258;2022-07-29T03:10:44;2.43;;;0.80;;
44532;SDS011;48673;53.016;-2.258;2022-07-29T03:13:14;9.90;;;1.83;;
44532;SDS011;48673;53.016;-2.258;2022-07-29T03:15:43;3.25;;;0.85;;
44532;SDS011;48673;53.016;-2.258;2022-07-29T03:18:11;5.78;;;1.08;;
44532;SDS011;48673;53.016;-2.258;2022-07-29T03:20:40;5.28;;;1.15;;
44532;SDS011;48673;53.016;-2.258;2022-07-29T03:23:09;3.58;;;1.08;;
44532;SDS011;48673;53.016;-2.258;2022-07-29T03:25:37;4.17;;;1.13;;
44532;SDS011;48673;53.016;-2.258;2022-07-29T03:28:04;7.75;;;1.02;;
44532;SDS011;48673;53.016;-2.258;2022-07-29T03:30:32;6.25;;;1.00;;
44532;SDS011;48673;53.016;-2.258;2022-07-29T03:33:00;6.40;;;1.08;;
44532;SDS011;48673;53.016;-2.258;2022-07-29T03:35:28;3.07;;;1.03;;
44532;SDS011;48673;53.016;-2.258;2022-07-29T03:37:58;2.40;;;1.00;;
44532;SDS011;48673;53.016;-2.258;2022-07-29T03:40:33;3.83;;;1.20;;
44532;SDS011;48673;53.016;-2.258;2022-07-29T03:43:07;11.18;;;1.88;;
44532;SDS011;48673;53.016;-2.258;2022-07-29T03:45:36;8.05;;;0.85;;
44532;SDS011;48673;53.016;-2.258;2022-07-29T03:48:07;7.43;;;1.33;;
44532;SDS011;48673;53.016;-2.258;2022-07-29T03:50:39;6.00;;;1.40;;
44532;SDS011;48673;53.016;-2.258;2022-07-29T03:53:07;5.00;;;1.35;;
44532;SDS011;48673;53.016;-2.258;2022-07-29T03:55:43;3.00;;;1.13;;
44532;SDS011;48673;53.016;-2.258;2022-07-29T03:58:14;2.88;;;1.73;;
44532;SDS011;48673;53.016;-2.258;2022-07-29T04:00:43;4.43;;;1.42;;
44532;SDS011;48673;53.016;-2.258;2022-07-29T04:03:12;4.15;;;1.30;;
44532;SDS011;48673;53.016;-2.258;2022-07-29T04:05:41;7.40;;;1.88;;
44532;SDS011;48673;53.016;-2.258;2022-07-29T04:08:09;4.45;;;1.73;;
44532;SDS011;48673;53.016;-2.258;2022-07-29T04:10:37;5.63;;;1.52;;
44532;SDS011;48673;53.016;-2.258;2022-07-29T04:13:05;5.22;;;1.60;;
44532;SDS011;48673;53.016;-2.258;2022-07-29T04:15:33;5.65;;;1.63;;
44532;SDS011;48673;53.016;-2.258;2022-07-29T04:18:01;6.75;;;2.13;;
44532;SDS011;48673;53.016;-2.258;2022-07-29T04:20:28;8.32;;;1.70;;
44532;SDS011;48673;53.016;-2.258;2022-07-29T04:22:56;3.50;;;1.70;;
44532;SDS011;48673;53.016;-2.258;2022-07-29T04:25:24;5.70;;;2.10;;
44532;SDS011;48673;53.016;-2.258;2022-07-29T04:27:52;4.97;;;1.80;;
44532;SDS011;48673;53.016;-2.258;2022-07-29T04:30:30;4.20;;;1.70;;
44532;SDS011;48673;53.016;-2.258;2022-07-29T04:32:59;6.47;;;2.38;;
44532;SDS011;48673;53.016;-2.258;2022-07-29T04:35:29;6.75;;;1.80;;
44532;SDS011;48673;53.016;-2.258;2022-07-29T04:38:05;4.43;;;1.73;;
44532;SDS011;48673;53.016;-2.258;2022-07-29T04:40:41;10.27;;;2.50;;
44532;SDS011;48673;53.016;-2.258;2022-07-29T04:43:09;4.85;;;1.88;;
44532;SDS011;48673;53.016;-2.258;2022-07-29T04:45:40;6.03;;;1.88;;
44532;SDS011;48673;53.016;-2.258;2022-07-29T04:48:08;6.30;;;2.05;;
44532;SDS011;48673;53.016;-2.258;2022-07-29T04:50:39;4.45;;;1.90;;
44532;SDS011;48673;53.016;-2.258;2022-07-29T04:53:07;5.72;;;1.55;;
44532;SDS011;48673;53.016;-2.258;2022-07-29T04:55:35;10.10;;;1.77;;
44532;SDS011;48673;53.016;-2.258;2022-07-29T04:58:05;5.07;;;2.42;;
44532;SDS011;48673;53.016;-2.258;2022-07-29T05:00:33;3.15;;;1.50;;
44532;SDS011;48673;53.016;-2.258;2022-07-29T05:03:01;8.50;;;1.83;;
44532;SDS011;48673;53.016;-2.258;2022-07-29T05:05:29;9.25;;;2.63;;
44532;SDS011;48673;53.016;-2.258;2022-07-29T05:07:57;3.50;;;2.00;;
44532;SDS011;48673;53.016;-2.258;2022-07-29T05:10:24;9.40;;;2.38;;
44532;SDS011;48673;53.016;-2.258;2022-07-29T05:12:52;7.28;;;2.00;;
44532;SDS011;48673;53.016;-2.258;2022-07-29T05:15:20;7.43;;;3.03;;
44532;SDS011;48673;53.016;-2.258;2022-07-29T05:17:48;3.97;;;1.67;;
44532;SDS011;48673;53.016;-2.258;2022-07-29T05:20:15;4.43;;;1.70;;
44532;SDS011;48673;53.016;-2.258;2022-07-29T05:22:43;5.15;;;1.95;;
44532;SDS011;48673;53.016;-2.258;2022-07-29T05:25:11;6.95;;;2.00;;
44532;SDS011;48673;53.016;-2.258;2022-07-29T05:27:39;11.68;;;1.90;;
44532;SDS011;48673;53.016;-2.258;2022-07-29T05:30:06;5.90;;;1.75;;
44532;SDS011;48673;53.016;-2.258;2022-07-29T05:32:36;10.20;;;2.47;;
44532;SDS011;48673;53.016;-2.258;2022-07-29T05:35:04;5.80;;;2.10;;
44532;SDS011;48673;53.016;-2.258;2022-07-29T05:37:32;6.38;;;2.97;;
44532;SDS011;48673;53.016;-2.258;2022-07-29T05:40:01;5.30;;;2.88;;
44532;SDS011;48673;53.016;-2.258;2022-07-29T05:42:29;7.50;;;2.60;;
44532;SDS011;48673;53.016;-2.258;2022-07-29T05:44:57;8.85;;;2.58;;
44532;SDS011;48673;53.016;-2.258;2022-07-29T05:47:25;8.63;;;2.13;;
44532;SDS011;48673;53.016;-2.258;2022-07-29T05:49:52;5.57;;;2.15;;
44532;SDS011;48673;53.016;-2.258;2022-07-29T05:52:20;4.50;;;2.20;;
44532;SDS011;48673;53.016;-2.258;2022-07-29T05:54:48;6.90;;;2.22;;
44532;SDS011;48673;53.016;-2.258;2022-07-29T05:57:17;6.38;;;2.42;;
44532;SDS011;48673;53.016;-2.258;2022-07-29T05:59:45;3.47;;;2.50;;
44532;SDS011;48673;53.016;-2.258;2022-07-29T06:02:15;9.68;;;2.53;;
44532;SDS011;48673;53.016;-2.258;2022-07-29T06:04:43;5.47;;;2.70;;
44532;SDS011;48673;53.016;-2.258;2022-07-29T06:07:11;7.18;;;2.55;;
44532;SDS011;48673;53.016;-2.258;2022-07-29T06:09:39;11.15;;;2.85;;
44532;SDS011;48673;53.016;-2.258;2022-07-29T06:12:07;6.47;;;2.22;;
44532;SDS011;48673;53.016;-2.258;2022-07-29T06:14:35;4.05;;;2.30;;
44532;SDS011;48673;53.016;-2.258;2022-07-29T06:17:04;10.35;;;2.42;;
44532;SDS011;48673;53.016;-2.258;2022-07-29T06:19:35;6.68;;;1.73;;
44532;SDS011;48673;53.016;-2.258;2022-07-29T06:22:03;9.55;;;1.83;;
44532;SDS011;48673;53.016;-2.258;2022-07-29T06:24:31;9.05;;;2.10;;
44532;SDS011;48673;53.016;-2.258;2022-07-29T06:26:59;6.90;;;2.10;;
44532;SDS011;48673;53.016;-2.258;2022-07-29T06:29:26;5.53;;;1.80;;
44532;SDS011;48673;53.016;-2.258;2022-07-29T06:31:54;5.07;;;2.05;;
44532;SDS011;48673;53.016;-2.258;2022-07-29T06:34:22;5.25;;;2.45;;
44532;SDS011;48673;53.016;-2.258;2022-07-29T06:36:50;8.10;;;2.38;;
44532;SDS011;48673;53.016;-2.258;2022-07-29T06:39:20;4.57;;;1.65;;
44532;SDS011;48673;53.016;-2.258;2022-07-29T06:41:48;10.40;;;2.50;;
44532;SDS011;48673;53.016;-2.258;2022-07-29T06:46:46;3.67;;;2.08;;
44532;SDS011;48673;53.016;-2.258;2022-07-29T06:49:16;8.02;;;2.13;;
44532;SDS011;48673;53.016;-2.258;2022-07-29T06:51:45;7.53;;;1.90;;
44532;SDS011;48673;53.016;-2.258;2022-07-29T06:54:13;10.20;;;2.00;;
44532;SDS011;48673;53.016;-2.258;2022-07-29T06:56:43;9.40;;;1.92;;
44532;SDS011;48673;53.016;-2.258;2022-07-29T06:59:11;9.65;;;2.58;;
44532;SDS011;48673;53.016;-2.258;2022-07-29T07:01:42;8.35;;;2.40;;
44532;SDS011;48673;53.016;-2.258;2022-07-29T07:06:39;9.75;;;2.05;;
44532;SDS011;48673;53.016;-2.258;2022-07-29T07:09:07;11.93;;;2.33;;
44532;SDS011;48673;53.016;-2.258;2022-07-29T07:11:36;9.23;;;2.42;;
44532;SDS011;48673;53.016;-2.258;2022-07-29T07:14:04;7.20;;;2.58;;
44532;SDS011;48673;53.016;-2.258;2022-07-29T07:16:32;4.82;;;1.77;;
44532;SDS011;48673;53.016;-2.258;2022-07-29T07:19:00;13.80;;;2.47;;
44532;SDS011;48673;53.016;-2.258;2022-07-29T07:21:28;3.97;;;1.88;;
44532;SDS011;48673;53.016;-2.258;2022-07-29T07:23:57;10.00;;;2.08;;
44532;SDS011;48673;53.016;-2.258;2022-07-29T07:26:26;8.00;;;1.98;;
44532;SDS011;48673;53.016;-2.258;2022-07-29T07:28:54;9.82;;;1.83;;
44532;SDS011;48673;53.016;-2.258;2022-07-29T07:31:22;6.10;;;1.52;;
44532;SDS011;48673;53.016;-2.258;2022-07-29T07:33:50;10.00;;;1.70;;
44532;SDS011;48673;53.016;-2.258;2022-07-29T07:36:19;13.07;;;2.40;;
44532;SDS011;48673;53.016;-2.258;2022-07-29T07:38:46;3.45;;;1.50;;
44532;SDS011;48673;53.016;-2.258;2022-07-29T07:41:14;7.40;;;1.83;;
44532;SDS011;48673;53.016;-2.258;2022-07-29T07:43:42;10.65;;;1.63;;
44532;SDS011;48673;53.016;-2.258;2022-07-29T07:46:11;8.05;;;1.83;;
44532;SDS011;48673;53.016;-2.258;2022-07-29T07:48:39;7.57;;;1.77;;
44532;SDS011;48673;53.016;-2.258;2022-07-29T07:51:07;5.20;;;1.77;;
44532;SDS011;48673;53.016;-2.258;2022-07-29T07:53:34;7.72;;;2.15;;
44532;SDS011;48673;53.016;-2.258;2022-07-29T07:56:02;4.00;;;1.70;;
44532;SDS011;48673;53.016;-2.258;2022-07-29T07:58:39;14.82;;;2.50;;
44532;SDS011;48673;53.016;-2.258;2022-07-29T08:01:07;6.80;;;2.30;;
44532;SDS011;48673;53.016;-2.258;2022-07-29T08:03:36;7.10;;;2.38;;
44532;SDS011;48673;53.016;-2.258;2022-07-29T08:06:05;11.05;;;3.30;;
44532;SDS011;48673;53.016;-2.258;2022-07-29T08:08:33;6.00;;;2.70;;
44532;SDS011;48673;53.016;-2.258;2022-07-29T08:11:00;15.27;;;3.67;;
44532;SDS011;48673;53.016;-2.258;2022-07-29T08:13:35;6.15;;;1.80;;
44532;SDS011;48673;53.016;-2.258;2022-07-29T08:16:05;8.38;;;1.75;;
44532;SDS011;48673;53.016;-2.258;2022-07-29T08:18:40;7.72;;;1.88;;
44532;SDS011;48673;53.016;-2.258;2022-07-29T08:21:11;5.93;;;1.60;;
44532;SDS011;48673;53.016;-2.258;2022-07-29T08:23:42;7.82;;;2.03;;
44532;SDS011;48673;53.016;-2.258;2022-07-29T08:26:28;4.35;;;1.60;;
44532;SDS011;48673;53.016;-2.258;2022-07-29T08:28:56;7.32;;;2.10;;
44532;SDS011;48673;53.016;-2.258;2022-07-29T08:31:24;10.48;;;1.90;;
44532;SDS011;48673;53.016;-2.258;2022-07-29T08:33:54;5.82;;;2.47;;
44532;SDS011;48673;53.016;-2.258;2022-07-29T08:36:25;5.50;;;1.80;;
44532;SDS011;48673;53.016;-2.258;2022-07-29T08:38:53;8.55;;;2.25;;
44532;SDS011;48673;53.016;-2.258;2022-07-29T08:41:22;11.80;;;2.40;;
44532;SDS011;48673;53.016;-2.258;2022-07-29T08:43:53;10.10;;;2.13;;
44532;SDS011;48673;53.016;-2.258;2022-07-29T08:46:26;8.85;;;2.25;;
44532;SDS011;48673;53.016;-2.258;2022-07-29T08:48:57;10.40;;;2.78;;
44532;SDS011;48673;53.016;-2.258;2022-07-29T08:51:25;4.65;;;1.42;;
44532;SDS011;48673;53.016;-2.258;2022-07-29T08:53:55;7.72;;;1.70;;
44532;SDS011;48673;53.016;-2.258;2022-07-29T08:56:22;8.55;;;2.33;;
44532;SDS011;48673;53.016;-2.258;2022-07-29T08:58:50;11.37;;;2.57;;
44532;SDS011;48673;53.016;-2.258;2022-07-29T09:01:23;7.22;;;1.75;;
44532;SDS011;48673;53.016;-2.258;2022-07-29T09:04:10;6.45;;;2.10;;
44532;SDS011;48673;53.016;-2.258;2022-07-29T09:06:42;8.35;;;2.78;;
44532;SDS011;48673;53.016;-2.258;2022-07-29T09:09:14;9.48;;;2.03;;
44532;SDS011;48673;53.016;-2.258;2022-07-29T09:11:42;9.02;;;2.03;;
44532;SDS011;48673;53.016;-2.258;2022-07-29T09:14:13;11.03;;;2.30;;
44532;SDS011;48673;53.016;-2.258;2022-07-29T09:16:52;6.20;;;1.80;;
44532;SDS011;48673;53.016;-2.258;2022-07-29T09:19:32;7.35;;;1.95;;
44532;SDS011;48673;53.016;-2.258;2022-07-29T09:22:11;11.02;;;2.15;;
44532;SDS011;48673;53.016;-2.258;2022-07-29T09:24:43;6.50;;;2.80;;
44532;SDS011;48673;53.016;-2.258;2022-07-29T09:27:25;10.23;;;1.90;;
44532;SDS011;48673;53.016;-2.258;2022-07-29T09:30:03;4.32;;;2.30;;
44532;SDS011;48673;53.016;-2.258;2022-07-29T09:32:32;7.90;;;2.53;;
44532;SDS011;48673;53.016;-2.258;2022-07-29T09:37:45;8.02;;;2.50;;
44532;SDS011;48673;53.016;-2.258;2022-07-29T09:40:14;11.00;;;2.25;;
44532;SDS011;48673;53.016;-2.258;2022-07-29T09:42:44;8.98;;;1.77;;
44532;SDS011;48673;53.016;-2.258;2022-07-29T09:45:13;6.93;;;2.03;;
44532;SDS011;48673;53.016;-2.258;2022-07-29T09:48:13;4.97;;;2.70;;
44532;SDS011;48673;53.016;-2.258;2022-07-29T09:50:43;18.95;;;2.00;;
44532;SDS011;48673;53.016;-2.258;2022-07-29T09:53:11;4.35;;;2.17;;
44532;SDS011;48673;53.016;-2.258;2022-07-29T09:55:56;6.03;;;2.00;;
44532;SDS011;48673;53.016;-2.258;2022-07-29T09:58:24;10.40;;;2.80;;
44532;SDS011;48673;53.016;-2.258;2022-07-29T10:00:53;7.20;;;2.30;;
44532;SDS011;48673;53.016;-2.258;2022-07-29T10:03:24;7.78;;;2.55;;
44532;SDS011;48673;53.016;-2.258;2022-07-29T10:06:06;10.20;;;2.63;;
44532;SDS011;48673;53.016;-2.258;2022-07-29T10:08:37;10.93;;;3.20;;
44532;SDS011;48673;53.016;-2.258;2022-07-29T10:11:12;8.32;;;2.78;;
44532;SDS011;48673;53.016;-2.258;2022-07-29T10:13:45;8.35;;;3.05;;
44532;SDS011;48673;53.016;-2.258;2022-07-29T10:16:17;8.90;;;2.40;;
44532;SDS011;48673;53.016;-2.258;2022-07-29T10:18:45;6.97;;;2.08;;
44532;SDS011;48673;53.016;-2.258;2022-07-29T10:24:01;15.10;;;2.60;;
44532;SDS011;48673;53.016;-2.258;2022-07-29T10:26:30;8.95;;;2.50;;
44532;SDS011;48673;53.016;-2.258;2022-07-29T10:29:00;7.95;;;2.88;;
44532;SDS011;48673;53.016;-2.258;2022-07-29T10:31:29;8.50;;;2.33;;
44532;SDS011;48673;53.016;-2.258;2022-07-29T10:39:33;6.75;;;2.28;;
44532;SDS011;48673;53.016;-2.258;2022-07-29T10:42:23;23.92;;;2.85;;
44532;SDS011;48673;53.016;-2.258;2022-07-29T10:45:00;7.28;;;2.90;;
44532;SDS011;48673;53.016;-2.258;2022-07-29T10:47:31;6.20;;;1.88;;
44532;SDS011;48673;53.016;-2.258;2022-07-29T10:50:02;5.32;;;2.35;;
44532;SDS011;48673;53.016;-2.258;2022-07-29T11:00:53;14.00;;;2.75;;
44532;SDS011;48673;53.016;-2.258;2022-07-29T11:06:17;10.05;;;2.42;;
44532;SDS011;48673;53.016;-2.258;2022-07-29T11:09:14;6.75;;;2.50;;
44532;SDS011;48673;53.016;-2.258;2022-07-29T11:11:51;6.38;;;2.40;;
44532;SDS011;48673;53.016;-2.258;2022-07-29T11:17:18;9.68;;;2.50;;
44532;SDS011;48673;53.016;-2.258;2022-07-29T11:19:47;9.50;;;2.95;;
44532;SDS011;48673;53.016;-2.258;2022-07-29T11:22:34;6.32;;;2.28;;
44532;SDS011;48673;53.016;-2.258;2022-07-29T11:25:12;5.35;;;2.42;;
44532;SDS011;48673;53.016;-2.258;2022-07-29T11:27:43;8.25;;;2.17;;
44532;SDS011;48673;53.016;-2.258;2022-07-29T11:30:12;7.45;;;2.28;;
44532;SDS011;48673;53.016;-2.258;2022-07-29T11:32:42;9.95;;;2.97;;
44532;SDS011;48673;53.016;-2.258;2022-07-29T11:35:16;5.82;;;2.47;;
44532;SDS011;48673;53.016;-2.258;2022-07-29T11:43:55;4.65;;;2.47;;
44532;SDS011;48673;53.016;-2.258;2022-07-29T11:46:47;7.70;;;3.00;;
44532;SDS011;48673;53.016;-2.258;2022-07-29T11:49:24;10.00;;;2.95;;
44532;SDS011;48673;53.016;-2.258;2022-07-29T11:51:59;8.43;;;3.17;;
44532;SDS011;48673;53.016;-2.258;2022-07-29T11:54:32;33.97;;;5.13;;
44532;SDS011;48673;53.016;-2.258;2022-07-29T11:57:21;7.10;;;2.83;;
44532;SDS011;48673;53.016;-2.258;2022-07-29T12:00:03;5.50;;;3.17;;
44532;SDS011;48673;53.016;-2.258;2022-07-29T12:02:39;7.50;;;2.80;;
44532;SDS011;48673;53.016;-2.258;2022-07-29T12:05:14;10.85;;;3.30;;
44532;SDS011;48673;53.016;-2.258;2022-07-29T12:08:05;7.18;;;3.08;;
44532;SDS011;48673;53.016;-2.258;2022-07-29T12:10:38;11.63;;;4.07;;
44532;SDS011;48673;53.016;-2.258;2022-07-29T12:13:08;17.33;;;3.47;;
44532;SDS011;48673;53.016;-2.258;2022-07-29T12:15:38;8.07;;;3.22;;
44532;SDS011;48673;53.016;-2.258;2022-07-29T12:18:15;9.60;;;2.83;;
44532;SDS011;48673;53.016;-2.258;2022-07-29T12:20:59;13.27;;;2.95;;
44532;SDS011;48673;53.016;-2.258;2022-07-29T12:23:34;11.85;;;3.33;;
44532;SDS011;48673;53.016;-2.258;2022-07-29T12:26:57;15.80;;;4.60;;
44532;SDS011;48673;53.016;-2.258;2022-07-29T12:29:26;8.48;;;2.58;;
44532;SDS011;48673;53.016;-2.258;2022-07-29T12:32:02;11.85;;;4.22;;
44532;SDS011;48673;53.016;-2.258;2022-07-29T12:34:45;8.50;;;3.40;;
44532;SDS011;48673;53.016;-2.258;2022-07-29T12:37:13;9.75;;;3.22;;
44532;SDS011;48673;53.016;-2.258;2022-07-29T12:39:41;10.57;;;3.58;;
44532;SDS011;48673;53.016;-2.258;2022-07-29T12:42:12;8.18;;;3.58;;
44532;SDS011;48673;53.016;-2.258;2022-07-29T12:44:45;11.27;;;4.10;;
44532;SDS011;48673;53.016;-2.258;2022-07-29T12:47:16;14.88;;;4.30;;
44532;SDS011;48673;53.016;-2.258;2022-07-29T12:49:48;7.47;;;3.95;;
44532;SDS011;48673;53.016;-2.258;2022-07-29T12:55:10;8.52;;;4.55;;
44532;SDS011;48673;53.016;-2.258;2022-07-29T12:57:48;7.47;;;3.95;;
44532;SDS011;48673;53.016;-2.258;2022-07-29T13:00:23;10.85;;;4.00;;
44532;SDS011;48673;53.016;-2.258;2022-07-29T13:02:55;9.50;;;3.55;;
44532;SDS011;48673;53.016;-2.258;2022-07-29T13:05:38;13.27;;;4.20;;
44532;SDS011;48673;53.016;-2.258;2022-07-29T13:08:15;8.90;;;4.18;;
44532;SDS011;48673;53.016;-2.258;2022-07-29T13:10:48;11.70;;;4.25;;
44532;SDS011;48673;53.016;-2.258;2022-07-29T13:13:16;10.48;;;3.72;;
44532;SDS011;48673;53.016;-2.258;2022-07-29T13:15:44;9.73;;;5.05;;
44532;SDS011;48673;53.016;-2.258;2022-07-29T13:21:12;7.40;;;4.75;;
44532;SDS011;48673;53.016;-2.258;2022-07-29T13:23:44;12.18;;;4.38;;
44532;SDS011;48673;53.016;-2.258;2022-07-29T13:26:12;10.20;;;4.45;;
44532;SDS011;48673;53.016;-2.258;2022-07-29T13:28:40;16.10;;;4.60;;
44532;SDS011;48673;53.016;-2.258;2022-07-29T13:31:10;12.80;;;4.07;;
44532;SDS011;48673;53.016;-2.258;2022-07-29T13:33:38;11.53;;;4.70;;
44532;SDS011;48673;53.016;-2.258;2022-07-29T13:36:06;12.32;;;4.07;;
44532;SDS011;48673;53.016;-2.258;2022-07-29T13:38:36;13.35;;;5.38;;
44532;SDS011;48673;53.016;-2.258;2022-07-29T13:41:04;11.07;;;4.33;;
44532;SDS011;48673;53.016;-2.258;2022-07-29T13:43:32;9.13;;;4.40;;
44532;SDS011;48673;53.016;-2.258;2022-07-29T13:45:59;9.70;;;4.32;;
44532;SDS011;48673;53.016;-2.258;2022-07-29T13:48:27;8.15;;;3.58;;
44532;SDS011;48673;53.016;-2.258;2022-07-29T13:50:56;7.85;;;4.25;;
44532;SDS011;48673;53.016;-2.258;2022-07-29T13:53:23;10.20;;;5.00;;
44532;SDS011;48673;53.016;-2.258;2022-07-29T13:55:53;9.75;;;4.00;;
44532;SDS011;48673;53.016;-2.258;2022-07-29T13:58:24;9.63;;;4.75;;
44532;SDS011;48673;53.016;-2.258;2022-07-29T14:00:52;11.23;;;5.05;;
44532;SDS011;48673;53.016;-2.258;2022-07-29T14:03:22;10.23;;;4.53;;
44532;SDS011;48673;53.016;-2.258;2022-07-29T14:05:51;15.85;;;4.57;;
44532;SDS011;48673;53.016;-2.258;2022-07-29T14:08:19;8.82;;;3.72;;
44532;SDS011;48673;53.016;-2.258;2022-07-29T14:10:46;13.15;;;4.93;;
44532;SDS011;48673;53.016;-2.258;2022-07-29T14:13:17;14.00;;;5.03;;
44532;SDS011;48673;53.016;-2.258;2022-07-29T14:15:51;11.63;;;5.00;;
44532;SDS011;48673;53.016;-2.258;2022-07-29T14:18:20;10.63;;;4.88;;
44532;SDS011;48673;53.016;-2.258;2022-07-29T14:20:47;6.80;;;4.50;;
44532;SDS011;48673;53.016;-2.258;2022-07-29T14:23:15;10.38;;;3.83;;
44532;SDS011;48673;53.016;-2.258;2022-07-29T14:25:46;13.18;;;4.63;;
44532;SDS011;48673;53.016;-2.258;2022-07-29T14:28:15;11.57;;;4.72;;
44532;SDS011;48673;53.016;-2.258;2022-07-29T14:30:43;8.15;;;4.82;;
44532;SDS011;48673;53.016;-2.258;2022-07-29T14:33:11;11.23;;;4.20;;
44532;SDS011;48673;53.016;-2.258;2022-07-29T14:35:39;9.48;;;5.35;;
44532;SDS011;48673;53.016;-2.258;2022-07-29T14:38:07;9.65;;;4.30;;
44532;SDS011;48673;53.016;-2.258;2022-07-29T14:40:35;16.83;;;4.20;;
44532;SDS011;48673;53.016;-2.258;2022-07-29T14:43:04;11.95;;;4.32;;
44532;SDS011;48673;53.016;-2.258;2022-07-29T14:45:32;8.05;;;3.92;;
44532;SDS011;48673;53.016;-2.258;2022-07-29T14:48:01;10.70;;;5.03;;
44532;SDS011;48673;53.016;-2.258;2022-07-29T14:50:30;9.00;;;4.47;;
44532;SDS011;48673;53.016;-2.258;2022-07-29T14:52:59;12.63;;;4.88;;
44532;SDS011;48673;53.016;-2.258;2022-07-29T14:55:28;6.13;;;4.32;;
44532;SDS011;48673;53.016;-2.258;2022-07-29T14:57:56;10.40;;;4.10;;
44532;SDS011;48673;53.016;-2.258;2022-07-29T15:00:37;7.35;;;4.20;;
44532;SDS011;48673;53.016;-2.258;2022-07-29T15:03:05;11.35;;;4.53;;
44532;SDS011;48673;53.016;-2.258;2022-07-29T15:05:37;9.18;;;4.28;;
44532;SDS011;48673;53.016;-2.258;2022-07-29T15:08:06;10.10;;;4.45;;
44532;SDS011;48673;53.016;-2.258;2022-07-29T15:10:35;9.45;;;3.75;;
44532;SDS011;48673;53.016;-2.258;2022-07-29T15:13:05;9.13;;;4.00;;
44532;SDS011;48673;53.016;-2.258;2022-07-29T15:15:33;7.72;;;4.13;;
44532;SDS011;48673;53.016;-2.258;2022-07-29T15:18:01;8.63;;;4.17;;
44532;SDS011;48673;53.016;-2.258;2022-07-29T15:20:29;7.33;;;3.70;;
44532;SDS011;48673;53.016;-2.258;2022-07-29T15:22:57;9.15;;;4.63;;
44532;SDS011;48673;53.016;-2.258;2022-07-29T15:25:26;12.35;;;4.43;;
44532;SDS011;48673;53.016;-2.258;2022-07-29T15:27:54;12.30;;;4.20;;
44532;SDS011;48673;53.016;-2.258;2022-07-29T15:30:28;13.00;;;4.50;;
44532;SDS011;48673;53.016;-2.258;2022-07-29T15:33:03;12.52;;;4.60;;
44532;SDS011;48673;53.016;-2.258;2022-07-29T15:35:31;9.80;;;4.03;;
44532;SDS011;48673;53.016;-2.258;2022-07-29T15:38:06;12.20;;;4.40;;
44532;SDS011;48673;53.016;-2.258;2022-07-29T15:40:37;5.97;;;3.43;;
44532;SDS011;48673;53.016;-2.258;2022-07-29T15:43:08;8.75;;;4.00;;
44532;SDS011;48673;53.016;-2.258;2022-07-29T15:45:40;9.95;;;3.00;;
44532;SDS011;48673;53.016;-2.258;2022-07-29T15:48:29;10.20;;;4.68;;
44532;SDS011;48673;53.016;-2.258;2022-07-29T15:51:02;11.25;;;3.70;;